Time;durP1;ratioP1;P1;durP2;ratioP2;P2;SDS_P1;SDS_P2;PMS_P1;PMS_P2;Temp;Humidity;BMP_temperature;BMP_pressure;BME280_temperature;BME280_humidity;BME280_pressure;Samples;Min_cycle;Max_cycle;Signal;HPM_P1;HPM_P2
2022/10/13 00:01:19;;;;;;;18.63;13.48;;;10.30;99.90;;;;;;5026921;28;20203;-85
2022/10/13 00:03:46;;;;;;;24.73;14.38;;;10.20;99.90;;;;;;5021367;28;20041;-84
2022/10/13 00:06:13;;;;;;;20.48;13.75;;;10.20;99.90;;;;;;5023540;28;20045;-84
2022/10/13 00:08:40;;;;;;;22.65;14.35;;;10.20;99.90;;;;;;5027906;28;20037;-85
2022/10/13 00:11:15;;;;;;;22.67;14.60;;;10.20;99.90;;;;;;5024296;28;20053;-84
2022/10/13 00:13:42;;;;;;;19.25;13.50;;;10.20;99.90;;;;;;5024839;28;20581;-83
2022/10/13 00:16:09;;;;;;;20.55;13.70;;;10.20;99.90;;;;;;5007171;28;20041;-84
2022/10/13 00:18:35;;;;;;;20.58;14.02;;;10.20;99.90;;;;;;5019658;28;20512;-84
2022/10/13 00:21:05;;;;;;;21.95;14.43;;;10.20;99.90;;;;;;5014744;28;20045;-83
2022/10/13 00:23:32;;;;;;;22.20;14.25;;;10.10;99.90;;;;;;5004050;28;20493;-84
2022/10/13 00:26:01;;;;;;;24.17;13.88;;;10.10;99.90;;;;;;5027667;28;20053;-84
2022/10/13 00:28:27;;;;;;;20.30;14.38;;;10.10;99.90;;;;;;5008868;28;20176;-84
2022/10/13 00:30:52;;;;;;;26.73;14.90;;;10.10;99.90;;;;;;5028754;28;20120;-84
2022/10/13 00:33:18;;;;;;;20.83;14.48;;;10.00;99.90;;;;;;5019103;28;20076;-83
2022/10/13 00:35:46;;;;;;;21.63;14.85;;;10.10;99.90;;;;;;5028173;28;20358;-84
2022/10/13 00:38:12;;;;;;;21.83;14.13;;;10.00;99.90;;;;;;5006942;28;20124;-84
2022/10/13 00:40:54;;;;;;;26.00;14.47;;;10.00;99.90;;;;;;5022459;28;20049;-84
2022/10/13 00:43:44;;;;;;;22.13;15.05;;;10.10;99.90;;;;;;5030752;28;20663;-84
2022/10/13 00:46:09;;;;;;;22.95;14.07;;;10.00;99.90;;;;;;5028243;28;20453;-84
2022/10/13 00:48:35;;;;;;;23.98;14.65;;;10.10;99.90;;;;;;5023405;28;20068;-83
2022/10/13 00:51:01;;;;;;;24.10;14.85;;;10.10;99.90;;;;;;5023960;28;20132;-83
2022/10/13 00:53:30;;;;;;;22.98;15.45;;;10.10;99.90;;;;;;5025570;28;20044;-82
2022/10/13 00:55:56;;;;;;;24.00;15.88;;;10.10;99.90;;;;;;5025052;28;20049;-83
2022/10/13 00:58:25;;;;;;;24.02;16.15;;;10.10;99.90;;;;;;5027936;28;20037;-84
2022/10/13 01:00:52;;;;;;;22.55;15.50;;;10.10;99.90;;;;;;5027637;28;20037;-84
2022/10/13 01:03:19;;;;;;;27.30;16.55;;;10.00;99.90;;;;;;5022165;28;20037;-84
2022/10/13 01:05:46;;;;;;;23.00;16.25;;;10.10;99.90;;;;;;5020668;28;20527;-78
2022/10/13 01:08:14;;;;;;;22.13;15.85;;;10.10;99.90;;;;;;5027407;28;20080;-83
2022/10/13 01:11:09;;;;;;;23.45;16.05;;;10.10;99.90;;;;;;5026621;28;20037;-83
2022/10/13 01:13:59;;;;;;;25.80;16.50;;;10.10;99.90;;;;;;5009134;28;20080;-84
2022/10/13 01:16:50;;;;;;;25.30;16.60;;;10.10;99.90;;;;;;5035108;28;20034;-84
2022/10/13 01:19:53;;;;;;;24.08;16.88;;;10.10;99.90;;;;;;5034379;28;20037;-83
2022/10/13 01:22:30;;;;;;;25.75;17.98;;;10.10;99.90;;;;;;5034440;28;20041;-84
2022/10/13 01:25:06;;;;;;;;;;;10.10;99.90;;;;;;5012022;28;20057;-83
2022/10/13 01:27:59;;;;;;;21.85;16.60;;;10.10;99.90;;;;;;5030679;28;19978;-83
2022/10/13 01:30:25;;;;;;;23.48;16.42;;;10.10;99.90;;;;;;5015420;28;20120;-83
2022/10/13 01:33:14;;;;;;;20.42;15.05;;;10.00;99.90;;;;;;5015992;28;20558;-84
2022/10/13 01:36:02;;;;;;;20.23;14.68;;;10.00;99.90;;;;;;5029291;28;20037;-84
2022/10/13 01:38:39;;;;;;;21.30;14.15;;;10.00;99.90;;;;;;5030255;28;20048;-84
2022/10/13 01:41:36;;;;;;;26.65;14.55;;;9.90;99.90;;;;;;5031217;28;20392;-83
2022/10/13 01:44:08;;;;;;;20.08;14.73;;;9.90;99.90;;;;;;5032696;28;20092;-83
2022/10/13 01:46:38;;;;;;;20.02;14.32;;;9.80;99.90;;;;;;5030930;28;20116;-84
2022/10/13 01:49:09;;;;;;;22.58;14.90;;;9.90;99.90;;;;;;5030602;28;20041;-83
2022/10/13 01:51:35;;;;;;;21.25;15.15;;;9.90;99.90;;;;;;5030559;28;20045;-83
2022/10/13 01:54:01;;;;;;;19.17;15.20;;;9.90;99.90;;;;;;5031777;28;20049;-82
2022/10/13 01:56:27;;;;;;;22.92;14.65;;;9.80;99.90;;;;;;5027870;28;20041;-83
2022/10/13 01:58:55;;;;;;;22.70;14.68;;;9.80;99.90;;;;;;5033713;28;20038;-83
2022/10/13 02:01:32;;;;;;;20.27;14.80;;;9.80;99.90;;;;;;5012164;28;20041;-84
2022/10/13 02:04:10;;;;;;;20.13;14.93;;;9.80;99.90;;;;;;5012715;28;20045;-82
2022/10/13 02:06:50;;;;;;;20.83;15.45;;;9.80;99.90;;;;;;5025010;28;20041;-83
2022/10/13 02:09:48;;;;;;;22.55;15.52;;;9.80;99.90;;;;;;5028830;28;20038;-83
2022/10/13 02:12:29;;;;;;;24.30;15.35;;;9.80;99.90;;;;;;5014141;28;20049;-83
2022/10/13 02:14:59;;;;;;;25.38;15.35;;;9.90;99.90;;;;;;5029201;28;20059;-83
2022/10/13 02:17:27;;;;;;;23.33;15.45;;;9.80;99.90;;;;;;5017327;28;20041;-83
2022/10/13 02:19:53;;;;;;;21.40;16.23;;;9.90;99.90;;;;;;5031040;28;20476;-83
2022/10/13 02:22:21;;;;;;;23.13;16.70;;;9.90;99.90;;;;;;5022805;28;20536;-83
2022/10/13 02:24:47;;;;;;;23.73;15.88;;;9.80;99.90;;;;;;5026161;28;20045;-83
2022/10/13 02:27:13;;;;;;;22.40;15.40;;;9.90;99.90;;;;;;5032201;28;20037;-83
2022/10/13 02:29:53;;;;;;;24.17;16.23;;;9.80;99.90;;;;;;5014599;28;20113;-84
2022/10/13 02:32:19;;;;;;;21.88;15.93;;;9.90;99.90;;;;;;5034426;28;20056;-84
2022/10/13 02:34:45;;;;;;;23.17;15.52;;;9.90;99.90;;;;;;5011809;28;20041;-84
2022/10/13 02:37:11;;;;;;;22.15;15.35;;;9.90;99.90;;;;;;5012210;28;20037;-84
2022/10/13 02:39:37;;;;;;;22.77;16.30;;;9.90;99.90;;;;;;5027039;28;20101;-84
2022/10/13 02:42:03;;;;;;;21.73;16.08;;;9.90;99.90;;;;;;5033092;28;20065;-83
2022/10/13 02:44:28;;;;;;;19.52;15.88;;;9.90;99.90;;;;;;5011207;28;20045;-83
2022/10/13 02:46:54;;;;;;;22.40;15.88;;;9.90;99.90;;;;;;5029282;28;20038;-84
2022/10/13 02:49:20;;;;;;;21.70;15.77;;;9.90;99.90;;;;;;5030778;28;20060;-83
2022/10/13 02:51:46;;;;;;;24.45;16.10;;;9.90;99.90;;;;;;5030475;28;20068;-84
2022/10/13 02:54:11;;;;;;;22.10;15.20;;;10.00;99.90;;;;;;5032970;28;20481;-84
2022/10/13 02:56:37;;;;;;;25.80;17.23;;;9.90;99.90;;;;;;5016655;28;20037;-83
2022/10/13 02:59:03;;;;;;;23.35;16.30;;;9.90;99.90;;;;;;5023116;28;20040;-83
2022/10/13 03:01:28;;;;;;;23.92;16.08;;;9.90;99.90;;;;;;5026197;28;20038;-83
2022/10/13 03:03:54;;;;;;;20.80;15.85;;;9.90;99.90;;;;;;5021048;28;20552;-84
2022/10/13 03:06:20;;;;;;;23.77;16.73;;;10.00;99.90;;;;;;5020213;28;20046;-84
2022/10/13 03:08:45;;;;;;;22.20;17.25;;;10.00;99.90;;;;;;5006547;28;20048;-82
2022/10/13 03:11:11;;;;;;;21.35;16.88;;;10.00;99.90;;;;;;5021488;28;20118;-83
2022/10/13 03:13:37;;;;;;;22.65;16.08;;;9.90;99.90;;;;;;5019899;28;20049;-83
2022/10/13 03:16:03;;;;;;;25.50;17.48;;;10.00;99.90;;;;;;5022241;28;20579;-84
2022/10/13 03:18:29;;;;;;;25.55;17.23;;;10.00;99.90;;;;;;5004148;28;20124;-84
2022/10/13 03:21:05;;;;;;;25.55;17.92;;;10.00;99.90;;;;;;5022385;28;20171;-83
2022/10/13 03:23:31;;;;;;;26.85;19.00;;;10.10;99.90;;;;;;5021137;28;20054;-83
2022/10/13 03:25:58;;;;;;;23.15;19.65;;;10.10;99.90;;;;;;5023857;28;20044;-84
2022/10/13 03:28:23;;;;;;;27.30;20.63;;;10.10;99.90;;;;;;5021034;28;20094;-83
2022/10/13 03:30:49;;;;;;;35.00;23.63;;;10.20;99.90;;;;;;5024944;28;20128;-84
2022/10/13 03:33:15;;;;;;;30.35;25.45;;;10.20;99.90;;;;;;5017287;28;20061;-83
2022/10/13 03:35:41;;;;;;;36.80;28.27;;;10.20;99.90;;;;;;5021114;28;20057;-83
2022/10/13 03:38:07;;;;;;;51.47;38.35;;;10.20;99.90;;;;;;5022194;28;20041;-83
2022/10/13 03:40:35;;;;;;;55.42;39.63;;;10.30;99.90;;;;;;5002473;28;20049;-83
2022/10/13 03:43:00;;;;;;;67.03;48.35;;;10.30;99.90;;;;;;5006636;28;20053;-84
2022/10/13 03:45:26;;;;;;;66.45;47.22;;;10.30;99.90;;;;;;5023852;28;20091;-84
2022/10/13 03:47:52;;;;;;;80.45;56.05;;;10.30;99.90;;;;;;5001187;28;20570;-83
2022/10/13 03:50:17;;;;;;;97.43;62.47;;;10.40;99.90;;;;;;5018785;28;20500;-84
2022/10/13 03:52:43;;;;;;;99.53;63.13;;;10.40;99.90;;;;;;5017758;28;20053;-83
2022/10/13 03:55:09;;;;;;;114.07;69.80;;;10.50;99.90;;;;;;5015930;28;20063;-83
2022/10/13 03:57:34;;;;;;;124.13;73.85;;;10.50;99.90;;;;;;5021343;28;20067;-83
2022/10/13 04:00:00;;;;;;;141.15;83.63;;;10.50;99.90;;;;;;5003694;28;20493;-85
2022/10/13 04:02:26;;;;;;;141.30;81.68;;;10.50;99.90;;;;;;5020514;28;20110;-83
2022/10/13 04:04:51;;;;;;;126.05;76.13;;;10.50;99.90;;;;;;4997423;28;20412;-84
2022/10/13 04:07:17;;;;;;;121.55;79.65;;;10.50;99.90;;;;;;5020611;28;20070;-85
2022/10/13 04:09:43;;;;;;;109.18;69.50;;;10.50;99.90;;;;;;5005550;28;20833;-83
2022/10/13 04:12:08;;;;;;;75.55;49.55;;;10.50;99.90;;;;;;5026084;28;20081;-85
2022/10/13 04:14:34;;;;;;;51.70;35.15;;;10.50;99.90;;;;;;5009710;28;20404;-85
2022/10/13 04:17:00;;;;;;;44.30;30.15;;;10.40;99.90;;;;;;5025882;28;20038;-84
2022/10/13 04:19:26;;;;;;;35.83;25.88;;;10.40;99.90;;;;;;5026995;28;20604;-84
2022/10/13 04:21:51;;;;;;;33.63;25.42;;;10.50;99.90;;;;;;5025697;28;20413;-86
2022/10/13 04:24:17;;;;;;;41.97;29.48;;;10.40;99.90;;;;;;5024267;28;20043;-85
2022/10/13 04:26:45;;;;;;;33.92;25.88;;;10.40;99.90;;;;;;5023219;28;20037;-85
2022/10/13 04:29:11;;;;;;;37.22;25.42;;;10.50;99.90;;;;;;5024515;28;20042;-87
2022/10/13 04:31:38;;;;;;;29.35;20.90;;;10.40;99.90;;;;;;5022172;28;20072;-86
2022/10/13 04:34:04;;;;;;;26.10;18.98;;;10.40;99.90;;;;;;5017675;28;20480;-86
2022/10/13 04:36:30;;;;;;;23.10;17.52;;;10.40;99.90;;;;;;5022274;28;20044;-85
2022/10/13 04:38:56;;;;;;;22.33;17.25;;;10.40;99.90;;;;;;5019641;28;20049;-86
2022/10/13 04:41:22;;;;;;;24.40;17.05;;;10.40;99.90;;;;;;5024964;28;20037;-86
2022/10/13 04:43:52;;;;;;;25.15;17.85;;;10.40;99.90;;;;;;5002690;28;20085;-84
2022/10/13 04:46:23;;;;;;;25.23;19.02;;;10.40;99.90;;;;;;5023061;28;20472;-85
2022/10/13 04:48:49;;;;;;;27.52;18.10;;;10.40;99.90;;;;;;5023145;28;20042;-85
2022/10/13 04:51:23;;;;;;;28.85;18.25;;;10.30;99.90;;;;;;5023931;28;20451;-85
2022/10/13 04:53:54;;;;;;;25.58;18.25;;;10.40;99.90;;;;;;5004012;28;20132;-85
2022/10/13 04:56:20;;;;;;;26.30;18.58;;;10.30;99.90;;;;;;5023737;28;20469;-85
2022/10/13 04:58:46;;;;;;;25.35;18.33;;;10.30;99.90;;;;;;5022757;28;20037;-84
2022/10/13 05:01:20;;;;;;;26.02;18.25;;;10.30;99.90;;;;;;5024179;28;20760;-83
2022/10/13 05:03:46;;;;;;;27.38;18.80;;;10.40;99.90;;;;;;5022258;28;20046;-84
2022/10/13 05:06:23;;;;;;;25.13;19.35;;;10.40;99.90;;;;;;5019580;28;20463;-83
2022/10/13 05:08:49;;;;;;;28.17;19.95;;;10.40;99.90;;;;;;5005307;28;20190;-85
2022/10/13 05:11:16;;;;;;;27.83;20.35;;;10.40;99.90;;;;;;5024585;28;20053;-81
2022/10/13 05:13:42;;;;;;;26.20;19.33;;;10.50;99.90;;;;;;5022597;28;20125;-87
2022/10/13 05:16:12;;;;;;;28.80;19.00;;;10.40;99.90;;;;;;5019150;28;20184;-83
2022/10/13 05:18:39;;;;;;;32.55;19.90;;;10.50;99.90;;;;;;5017832;28;20040;-82
2022/10/13 05:21:10;;;;;;;26.38;19.15;;;10.50;99.90;;;;;;5022774;28;20388;-83
2022/10/13 05:23:39;;;;;;;27.73;19.42;;;10.50;99.90;;;;;;5025626;28;20641;-82
2022/10/13 05:26:08;;;;;;;27.08;18.98;;;10.50;99.90;;;;;;5027088;28;20412;-83
2022/10/13 05:28:34;;;;;;;31.58;19.10;;;10.50;99.90;;;;;;5025677;28;20523;-87
2022/10/13 05:31:21;;;;;;;25.60;19.25;;;10.50;99.90;;;;;;5007880;28;20607;-81
2022/10/13 05:33:51;;;;;;;27.98;19.75;;;10.60;99.90;;;;;;5023779;28;20080;-81
2022/10/13 05:36:29;;;;;;;25.58;19.70;;;10.60;99.90;;;;;;5024596;28;20033;-83
2022/10/13 05:39:00;;;;;;;29.67;19.23;;;10.60;99.90;;;;;;5020498;28;20076;-82
2022/10/13 05:41:27;;;;;;;27.80;20.05;;;10.60;99.90;;;;;;5022246;28;20076;-81
2022/10/13 05:44:01;;;;;;;29.92;20.48;;;10.60;99.90;;;;;;5026294;28;20056;-84
2022/10/13 05:46:27;;;;;;;25.25;19.95;;;10.60;99.90;;;;;;5022356;28;20049;-81
2022/10/13 05:48:53;;;;;;;25.00;19.25;;;10.60;99.90;;;;;;5026905;28;20041;-83
2022/10/13 05:51:27;;;;;;;30.15;20.52;;;10.60;99.90;;;;;;5027679;28;20057;-82
2022/10/13 05:54:11;;;;;;;26.45;19.88;;;10.70;99.90;;;;;;5022879;28;20045;-81
2022/10/13 05:56:41;;;;;;;27.17;19.75;;;10.70;99.90;;;;;;5008150;28;20041;-81
2022/10/13 05:59:11;;;;;;;30.50;20.25;;;10.70;99.90;;;;;;5010291;28;20425;-84
2022/10/13 06:01:39;;;;;;;31.33;21.65;;;10.70;99.90;;;;;;5022824;28;20047;-84
2022/10/13 06:04:19;;;;;;;31.45;21.05;;;10.70;99.90;;;;;;5010790;28;20497;-82
2022/10/13 06:06:47;;;;;;;29.27;22.67;;;10.70;99.90;;;;;;5025282;28;20620;-81
2022/10/13 06:09:16;;;;;;;33.42;24.52;;;10.70;99.90;;;;;;5023631;28;20125;-82
2022/10/13 06:11:45;;;;;;;31.57;23.57;;;10.70;99.90;;;;;;5022825;28;20454;-82
2022/10/13 06:14:14;;;;;;;33.58;22.35;;;10.70;99.90;;;;;;5029569;28;20336;-82
2022/10/13 06:16:40;;;;;;;32.15;21.70;;;10.70;99.90;;;;;;5020528;28;20064;-82
2022/10/13 06:19:05;;;;;;;34.50;21.98;;;10.70;99.90;;;;;;5029903;28;20053;-81
2022/10/13 06:21:39;;;;;;;31.08;20.95;;;10.70;99.90;;;;;;5023311;28;20076;-81
2022/10/13 06:24:08;;;;;;;25.77;20.85;;;10.80;99.90;;;;;;5019936;28;20037;-83
2022/10/13 06:26:37;;;;;;;28.20;20.80;;;10.80;99.90;;;;;;5008884;28;20071;-81
2022/10/13 06:29:03;;;;;;;27.23;20.77;;;10.80;99.90;;;;;;5026843;28;20042;-84
2022/10/13 06:31:29;;;;;;;27.48;21.33;;;10.80;99.90;;;;;;5028843;28;20037;-81
2022/10/13 06:33:55;;;;;;;29.10;20.85;;;10.80;99.90;;;;;;5024770;28;20408;-82
2022/10/13 06:36:21;;;;;;;29.17;20.80;;;10.80;99.90;;;;;;5022111;28;20135;-82
2022/10/13 06:38:50;;;;;;;30.10;20.52;;;10.80;99.90;;;;;;5026997;28;20042;-82
2022/10/13 06:41:21;;;;;;;31.25;20.95;;;10.80;99.90;;;;;;5028448;28;20091;-83
2022/10/13 06:43:50;;;;;;;30.02;21.13;;;10.90;99.90;;;;;;5027764;28;20042;-81
2022/10/13 06:46:19;;;;;;;30.35;21.83;;;10.90;99.90;;;;;;5008010;28;20169;-85
2022/10/13 06:48:50;;;;;;;30.23;21.48;;;10.90;99.90;;;;;;5022420;28;20124;-82
2022/10/13 06:51:17;;;;;;;29.45;20.52;;;10.90;99.90;;;;;;5025511;28;20049;-80
2022/10/13 06:53:43;;;;;;;28.50;22.37;;;11.00;99.90;;;;;;5026501;28;20045;-85
2022/10/13 06:56:09;;;;;;;33.08;22.88;;;10.90;99.90;;;;;;5018144;28;20257;-79
2022/10/13 06:58:36;;;;;;;29.77;21.35;;;11.00;99.90;;;;;;5024008;28;20520;-77
2022/10/13 07:01:03;;;;;;;28.83;21.45;;;11.00;99.90;;;;;;5032490;28;20102;-78
2022/10/13 07:03:29;;;;;;;27.92;22.15;;;11.00;99.90;;;;;;5024266;28;20064;-77
2022/10/13 07:06:01;;;;;;;30.98;22.38;;;11.00;99.90;;;;;;5026779;28;20485;-80
2022/10/13 07:08:27;;;;;;;30.30;22.52;;;11.00;99.90;;;;;;5025657;28;20048;-80
2022/10/13 07:10:52;;;;;;;27.55;21.13;;;11.10;99.90;;;;;;5043282;28;20071;-79
2022/10/13 07:13:18;;;;;;;30.38;23.52;;;11.10;99.90;;;;;;5010343;28;20049;-77
2022/10/13 07:15:44;;;;;;;32.38;23.20;;;11.10;99.90;;;;;;5000554;28;20542;-79
2022/10/13 07:18:09;;;;;;;31.67;22.17;;;11.10;99.90;;;;;;5025386;28;20437;-78
2022/10/13 07:20:36;;;;;;;28.33;22.33;;;11.20;99.90;;;;;;5033119;28;20498;-79
2022/10/13 07:23:02;;;;;;;26.08;21.85;;;11.30;99.90;;;;;;5032452;28;20163;-78
2022/10/13 07:25:28;;;;;;;28.98;22.40;;;11.20;99.90;;;;;;5007769;28;20085;-76
2022/10/13 07:28:00;;;;;;;29.70;23.33;;;11.30;99.90;;;;;;5017875;28;20051;-79
2022/10/13 07:30:26;;;;;;;28.42;21.20;;;11.40;99.90;;;;;;5020561;28;20052;-76
2022/10/13 07:32:52;;;;;;;28.55;22.52;;;11.40;99.90;;;;;;5014553;28;20159;-78
2022/10/13 07:35:18;;;;;;;29.70;22.30;;;11.40;99.90;;;;;;5026131;28;20037;-78
2022/10/13 07:37:54;;;;;;;28.58;22.73;;;11.50;99.90;;;;;;5019439;28;20088;-78
2022/10/13 07:40:20;;;;;;;31.60;22.38;;;11.50;99.90;;;;;;5012554;28;20061;-76
2022/10/13 07:42:45;;;;;;;33.58;22.20;;;11.60;99.90;;;;;;5004641;28;20049;-80
2022/10/13 07:45:11;;;;;;;32.60;23.60;;;11.60;99.90;;;;;;5029929;28;20041;-78
2022/10/13 07:47:37;;;;;;;30.08;23.15;;;11.70;99.90;;;;;;5025194;28;20041;-84
2022/10/13 07:50:03;;;;;;;30.30;22.92;;;11.70;99.90;;;;;;5029573;28;20132;-81
2022/10/13 07:52:29;;;;;;;32.75;23.67;;;11.80;99.90;;;;;;5025840;28;20039;-80
2022/10/13 07:54:55;;;;;;;31.33;22.73;;;11.80;99.90;;;;;;5023238;28;21836;-74
2022/10/13 07:57:24;;;;;;;32.53;24.02;;;11.80;99.90;;;;;;5006379;28;20049;-78
2022/10/13 07:59:50;;;;;;;33.17;24.10;;;11.80;99.90;;;;;;5004548;28;20143;-76
2022/10/13 08:02:16;;;;;;;33.05;24.20;;;11.90;99.90;;;;;;5023092;28;20037;-87
2022/10/13 08:04:41;;;;;;;35.92;24.42;;;11.90;99.90;;;;;;5030509;28;20065;-85
2022/10/13 08:07:08;;;;;;;31.08;24.65;;;11.90;99.90;;;;;;5024002;28;20073;-80
2022/10/13 08:09:34;;;;;;;32.00;24.38;;;12.00;99.90;;;;;;5026291;28;20048;-79
2022/10/13 08:11:59;;;;;;;33.53;24.00;;;12.10;99.90;;;;;;5030997;28;20441;-81
2022/10/13 08:14:25;;;;;;;33.30;23.30;;;12.10;99.90;;;;;;5026202;28;20125;-79
2022/10/13 08:16:51;;;;;;;33.10;23.35;;;12.20;99.90;;;;;;5006198;28;20111;-82
2022/10/13 08:19:19;;;;;;;30.77;22.98;;;12.20;99.90;;;;;;5025654;28;20135;-80
2022/10/13 08:21:45;;;;;;;;;;;12.30;99.90;;;;;;5026129;28;20423;-83
2022/10/13 08:24:15;;;;;;;31.73;22.67;;;12.30;99.90;;;;;;5022226;28;19920;-82
2022/10/13 08:26:42;;;;;;;30.63;22.85;;;12.30;99.90;;;;;;5028027;28;20044;-83
2022/10/13 08:29:09;;;;;;;30.48;22.55;;;12.40;99.90;;;;;;5021038;28;20049;-76
2022/10/13 08:31:34;;;;;;;34.25;22.75;;;12.40;99.90;;;;;;5020837;28;20048;-78
2022/10/13 08:34:00;;;;;;;28.00;22.02;;;12.50;99.90;;;;;;5029990;28;20128;-73
2022/10/13 08:36:26;;;;;;;31.77;23.40;;;12.50;99.90;;;;;;5027499;28;20045;-78
2022/10/13 08:38:52;;;;;;;32.72;23.88;;;12.50;99.90;;;;;;5009845;28;20049;-80
2022/10/13 08:41:20;;;;;;;31.85;23.80;;;12.60;99.90;;;;;;5026696;28;20523;-74
2022/10/13 08:43:55;;;;;;;36.33;23.13;;;12.70;99.90;;;;;;5009802;28;20041;-74
2022/10/13 08:46:36;;;;;;;29.92;22.63;;;12.80;99.90;;;;;;5023669;28;20073;-78
2022/10/13 08:49:01;;;;;;;26.27;20.52;;;12.90;99.90;;;;;;5027675;28;20042;-79
2022/10/13 08:51:29;;;;;;;30.40;21.30;;;13.00;99.90;;;;;;5025624;28;20068;-77
2022/10/13 08:53:55;;;;;;;;;;;13.00;99.90;;;;;;5024840;28;20084;-81
2022/10/13 08:56:49;;;;;;;26.25;20.63;;;13.00;99.90;;;;;;5024694;28;19968;-77
2022/10/13 08:59:17;;;;;;;32.33;20.38;;;13.00;99.90;;;;;;5015139;28;20104;-76
2022/10/13 09:01:48;;;;;;;28.45;21.17;;;12.90;99.90;;;;;;5023612;28;20046;-80
2022/10/13 09:04:40;;;;;;;31.17;21.00;;;12.90;99.90;;;;;;5006586;28;20131;-76
2022/10/13 09:07:09;;;;;;;29.38;20.40;;;12.90;99.90;;;;;;5029303;28;20100;-84
2022/10/13 09:09:38;;;;;;;34.47;20.83;;;12.80;99.90;;;;;;5027455;28;20511;-84
2022/10/13 09:12:13;;;;;;;31.25;20.80;;;12.80;99.90;;;;;;5022725;28;20107;-85
2022/10/13 09:14:40;;;;;;;28.35;21.52;;;12.80;99.90;;;;;;5027705;28;20046;-86
2022/10/13 09:17:14;;;;;;;28.40;20.58;;;12.80;99.90;;;;;;5024784;28;20447;-87
2022/10/13 09:19:39;;;;;;;28.55;21.27;;;12.80;99.90;;;;;;5023904;28;20054;-83
2022/10/13 09:22:26;;;;;;;26.42;21.10;;;12.80;99.90;;;;;;5026964;28;20037;-83
2022/10/13 09:25:19;;;;;;;35.53;22.42;;;12.80;99.90;;;;;;5026488;28;20061;-86
2022/10/13 09:27:58;;;;;;;29.83;22.45;;;12.90;99.90;;;;;;5011773;28;20061;-85
2022/10/13 09:30:30;;;;;;;30.20;22.33;;;12.90;99.90;;;;;;5029686;28;20060;-82
2022/10/13 09:33:08;;;;;;;32.60;21.88;;;12.90;99.90;;;;;;5023178;28;20132;-83
2022/10/13 09:35:39;;;;;;;29.70;21.85;;;13.00;99.90;;;;;;5026935;28;20042;-81
2022/10/13 09:38:08;;;;;;;29.42;21.98;;;13.00;99.90;;;;;;5023734;28;20042;-83
2022/10/13 09:40:34;;;;;;;27.58;23.17;;;13.10;99.90;;;;;;5008654;28;20042;-82
2022/10/13 09:43:02;;;;;;;31.65;21.08;;;13.10;99.90;;;;;;5026180;28;20622;-86
2022/10/13 09:45:29;;;;;;;30.02;21.75;;;13.20;99.90;;;;;;5023524;28;20602;-83
2022/10/13 09:48:03;;;;;;;30.30;21.65;;;13.30;99.90;;;;;;5024799;28;20045;-87
2022/10/13 09:50:32;;;;;;;28.65;21.60;;;13.40;99.90;;;;;;5022300;28;20049;-79
2022/10/13 09:53:23;;;;;;;30.23;21.63;;;13.40;99.90;;;;;;5010239;28;20049;-79
2022/10/13 09:55:49;;;;;;;29.70;21.02;;;13.50;99.90;;;;;;5005036;28;20064;-83
2022/10/13 09:58:26;;;;;;;28.90;21.58;;;13.50;99.90;;;;;;5008195;28;20813;-82
2022/10/13 10:00:53;;;;;;;31.88;22.05;;;13.60;99.90;;;;;;5024930;28;20046;-79
2022/10/13 10:03:32;;;;;;;36.97;22.40;;;13.70;99.90;;;;;;5024505;28;20545;-78
2022/10/13 10:06:01;;;;;;;29.08;21.13;;;13.80;99.90;;;;;;5019929;28;20088;-84
2022/10/13 10:09:12;;;;;;;28.88;21.73;;;13.80;99.90;;;;;;5008808;28;20049;-82
2022/10/13 10:11:44;;;;;;;29.55;22.48;;;13.90;99.90;;;;;;4999959;28;20060;-83
2022/10/13 10:14:22;;;;;;;30.40;22.67;;;14.00;99.90;;;;;;5027451;28;20040;-81
2022/10/13 10:17:08;;;;;;;28.50;22.35;;;14.10;99.90;;;;;;5010110;28;20459;-82
2022/10/13 10:20:00;;;;;;;25.83;22.50;;;14.10;99.90;;;;;;5021757;28;20046;-84
2022/10/13 10:22:59;;;;;;;30.55;23.88;;;14.30;99.90;;;;;;5003538;28;20052;-83
2022/10/13 10:25:29;;;;;;;27.60;24.23;;;14.30;99.90;;;;;;5019385;28;20650;-86
2022/10/13 10:28:21;;;;;;;31.30;24.98;;;14.30;99.90;;;;;;5025507;28;20527;-79
2022/10/13 10:31:13;;;;;;;30.10;24.85;;;14.30;99.90;;;;;;5023578;28;20049;-86
2022/10/13 10:33:47;;;;;;;30.83;25.10;;;14.30;99.90;;;;;;5024298;28;20559;-83
2022/10/13 10:36:20;;;;;;;31.67;25.02;;;14.30;99.90;;;;;;5025015;28;20045;-87
2022/10/13 10:38:59;;;;;;;28.23;24.17;;;14.30;99.90;;;;;;5026274;28;20560;-81
2022/10/13 10:41:30;;;;;;;27.70;24.23;;;14.30;99.90;;;;;;5003703;28;20480;-91
2022/10/13 10:44:18;;;;;;;29.88;24.95;;;14.30;99.90;;;;;;5024275;28;20079;-85
2022/10/13 10:46:53;;;;;;;28.27;23.55;;;14.30;99.90;;;;;;5024232;28;20052;-87
2022/10/13 10:49:25;;;;;;;29.23;24.20;;;14.30;99.90;;;;;;5025279;28;20167;-85
2022/10/13 10:51:52;;;;;;;29.30;24.00;;;14.30;99.90;;;;;;5024504;28;20057;-77
2022/10/13 10:54:48;;;;;;;28.35;24.05;;;14.30;99.90;;;;;;5022771;28;20554;-76
2022/10/13 10:57:27;;;;;;;32.45;25.17;;;14.30;99.90;;;;;;5019019;28;20835;-75
2022/10/13 11:00:04;;;;;;;29.95;23.70;;;14.30;99.90;;;;;;5026220;28;20117;-81
2022/10/13 11:02:36;;;;;;;;;;;14.30;99.90;;;;;;5025745;28;20034;-77
2022/10/13 11:05:02;;;;;;;29.83;25.02;;;14.30;99.90;;;;;;5012189;28;19929;-77
2022/10/13 11:07:27;;;;;;;51.95;44.83;;;14.30;99.90;;;;;;5019562;28;20061;-79
2022/10/13 11:09:55;;;;;;;84.18;60.92;;;14.30;99.90;;;;;;5022647;28;20825;-82
2022/10/13 11:12:23;;;;;;;72.45;54.38;;;14.40;99.90;;;;;;5007844;28;20128;-81
2022/10/13 11:15:11;;;;;;;;;;;14.40;99.90;;;;;;5024934;28;20050;-80
2022/10/13 11:17:39;;;;;;;50.38;44.97;;;14.40;99.90;;;;;;5008145;28;19929;-78
2022/10/13 11:20:34;;;;;;;33.97;29.02;;;14.30;99.90;;;;;;5023610;28;20532;-78
2022/10/13 11:22:59;;;;;;;37.40;30.77;;;14.40;99.90;;;;;;5022508;28;20053;-83
2022/10/13 11:25:40;;;;;;;34.90;27.67;;;14.40;99.90;;;;;;5029600;28;20040;-82
2022/10/13 11:28:21;;;;;;;37.83;32.28;;;14.50;99.90;;;;;;5028696;28;20048;-85
2022/10/13 11:30:55;;;;;;;37.17;31.52;;;14.50;99.90;;;;;;5021498;28;20049;-84
2022/10/13 11:33:49;;;;;;;36.15;32.05;;;14.50;99.90;;;;;;5028024;28;20045;-84
2022/10/13 11:36:53;;;;;;;32.70;27.92;;;14.50;99.90;;;;;;4993454;28;20057;-84
2022/10/13 11:39:27;;;;;;;33.80;29.42;;;14.50;99.90;;;;;;5021088;28;20041;-82
2022/10/13 11:41:56;;;;;;;37.85;31.05;;;14.40;99.90;;;;;;5021044;28;20038;-81
2022/10/13 11:44:44;;;;;;;33.85;28.35;;;14.40;99.90;;;;;;5011157;28;20132;-81
2022/10/13 11:47:25;;;;;;;36.97;29.77;;;14.40;99.90;;;;;;5025188;28;20076;-81
2022/10/13 11:50:05;;;;;;;32.53;27.52;;;14.40;99.90;;;;;;5024902;28;20041;-80
2022/10/13 11:52:48;;;;;;;36.17;29.42;;;14.30;99.90;;;;;;5025612;28;20089;-80
2022/10/13 11:55:18;;;;;;;34.08;28.58;;;14.30;99.90;;;;;;5022121;28;20133;-79
2022/10/13 11:57:44;;;;;;;39.72;35.47;;;14.30;99.90;;;;;;5025341;28;20037;-80
2022/10/13 12:00:16;;;;;;;36.78;31.50;;;14.30;99.90;;;;;;5027091;28;20512;-78
2022/10/13 12:02:55;;;;;;;32.80;28.15;;;14.30;99.90;;;;;;5006951;28;20443;-85
2022/10/13 12:05:27;;;;;;;37.13;31.63;;;14.30;99.90;;;;;;5019316;28;20483;-83
2022/10/13 12:08:01;;;;;;;38.00;34.00;;;14.30;99.90;;;;;;5026623;28;20046;-85
2022/10/13 12:10:33;;;;;;;36.08;31.05;;;14.30;99.90;;;;;;5010716;28;20567;-92
2022/10/13 12:13:01;;;;;;;33.08;29.60;;;14.20;99.90;;;;;;5025046;28;20052;-82
2022/10/13 12:15:32;;;;;;;35.85;28.60;;;14.20;99.90;;;;;;5030325;28;20068;-80
2022/10/13 12:17:59;;;;;;;33.40;29.70;;;14.20;99.90;;;;;;5026304;28;20041;-82
2022/10/13 12:20:28;;;;;;;33.65;30.00;;;14.20;99.90;;;;;;5029888;28;20049;-80
2022/10/13 12:22:54;;;;;;;37.13;30.58;;;14.20;99.90;;;;;;5029101;28;20049;-82
2022/10/13 12:25:23;;;;;;;36.22;29.48;;;14.10;99.90;;;;;;5028107;28;20045;-79
2022/10/13 12:27:54;;;;;;;34.63;28.30;;;14.10;99.90;;;;;;5027273;28;20057;-80
2022/10/13 12:30:27;;;;;;;36.83;30.13;;;14.10;99.90;;;;;;5028355;28;20037;-79
2022/10/13 12:32:55;;;;;;;40.42;30.70;;;14.10;99.90;;;;;;5022103;28;20068;-78
2022/10/13 12:35:30;;;;;;;41.50;32.53;;;14.20;99.90;;;;;;5023976;28;20448;-80
2022/10/13 12:37:59;;;;;;;40.50;29.85;;;14.10;99.90;;;;;;5002293;28;20050;-78
2022/10/13 12:40:26;;;;;;;39.28;29.60;;;14.20;99.90;;;;;;5020129;28;20037;-83
2022/10/13 12:42:52;;;;;;;39.28;31.77;;;14.10;99.90;;;;;;5003796;28;20053;-87
2022/10/13 12:45:25;;;;;;;37.03;30.15;;;14.10;99.90;;;;;;5025876;28;20033;-80
2022/10/13 12:47:52;;;;;;;38.50;29.88;;;14.10;99.90;;;;;;5017091;28;20282;-81